CheckWX is a tool to help pilots better visualize weather data.  It is not intended as a substitute for an official pre-flight weather briefing.

03:20:53 UTC

2W6 METAR
St Mary's County Regional Airport
Leonardtown, Maryland, USA
Current

18 mins ago

K2W6 240303Z AUTO 25003KT 10SM CLR 05/M05 A3027 RMK AO1
Observed
Mar-24 @ 03:03 UTC
Wind
  • 250° at 3 KTS
Visibility
10 SM
Flight Rules
VFR
Cloud Levels
  • Clear skies
Temperature
C / 41°F
Dewpoint
-5°C / 23°F
Humidity
49%
Altimeter
30.27" Hg
Pressure
1025.02 hPa
Previous

38 mins ago

K2W6 240243Z AUTO 00000KT 10SM CLR 05/M07 A3027 RMK AO1
Observed
Mar-24 @ 02:43 UTC
Visibility
10 SM
Flight Rules
VFR
Cloud Levels
  • Clear skies
Temperature
C / 41°F
Dewpoint
-7°C / 19°F
Humidity
42%
Altimeter
30.27" Hg
Pressure
1025.02 hPa
Previous

58 mins ago

K2W6 240223Z AUTO 00000KT 10SM CLR 06/M07 A3026 RMK AO1
Observed
Mar-24 @ 02:23 UTC
Visibility
10 SM
Flight Rules
VFR
Cloud Levels
  • Clear skies
Temperature
C / 43°F
Dewpoint
-7°C / 19°F
Humidity
39%
Altimeter
30.26" Hg
Pressure
1024.72 hPa